createdAt,value
2018-04-15T00:01:49.207Z,25.73
2018-04-15T00:04:16.815Z,28.60
2018-04-15T00:06:44.465Z,30.33
2018-04-15T00:09:12.112Z,35.73
2018-04-15T00:11:39.795Z,32.80
2018-04-15T00:14:07.396Z,37.37
2018-04-15T00:16:35.026Z,34.07
2018-04-15T00:19:02.629Z,38.60
2018-04-15T00:21:30.241Z,32.23
2018-04-15T00:23:57.851Z,32.87
2018-04-15T00:26:25.445Z,39.27
2018-04-15T00:28:53.035Z,38.10
2018-04-15T00:31:20.648Z,40.80
2018-04-15T00:33:48.241Z,37.30
2018-04-15T00:36:15.862Z,36.60
2018-04-15T00:38:43.488Z,40.73
2018-04-15T00:41:11.110Z,39.03
2018-04-15T00:43:38.717Z,39.50
2018-04-15T00:46:06.319Z,43.33
2018-04-15T00:48:33.957Z,39.80
2018-04-15T00:51:01.557Z,40.50
2018-04-15T00:53:40.942Z,41.77
2018-04-15T00:56:08.584Z,40.73
2018-04-15T00:58:36.195Z,40.57
2018-04-15T01:01:03.813Z,38.07
2018-04-15T01:03:31.425Z,44.73
2018-04-15T01:05:59.065Z,39.50
2018-04-15T01:08:26.661Z,37.87
2018-04-15T01:10:54.277Z,40.60
2018-04-15T01:13:21.888Z,39.63
2018-04-15T01:15:49.521Z,39.03
2018-04-15T01:18:17.151Z,39.20
2018-04-15T01:20:44.769Z,40.53
2018-04-15T01:23:12.364Z,41.93
2018-04-15T01:25:39.957Z,36.50
2018-04-15T01:28:07.572Z,35.23
2018-04-15T01:30:35.217Z,36.93
2018-04-15T01:33:02.801Z,35.27
2018-04-15T01:35:30.406Z,35.23
2018-04-15T01:37:58.037Z,34.60
2018-04-15T01:40:25.677Z,34.23
2018-04-15T01:42:53.380Z,30.57
2018-04-15T01:45:21.047Z,32.03
2018-04-15T01:47:48.717Z,30.07
2018-04-15T01:50:16.329Z,28.77
2018-04-15T01:52:43.957Z,30.23
2018-04-15T01:55:11.597Z,33.57
2018-04-15T01:57:39.197Z,34.43
2018-04-15T02:00:06.785Z,34.53
2018-04-15T02:02:34.387Z,38.67
2018-04-15T02:05:01.989Z,44.17
2018-04-15T02:07:29.585Z,48.60
2018-04-15T02:09:57.181Z,49.53
2018-04-15T02:12:24.802Z,51.77
2018-04-15T02:14:52.396Z,53.13
2018-04-15T02:17:20.033Z,51.40
2018-04-15T02:19:47.668Z,53.63
2018-04-15T02:22:15.253Z,49.80
2018-04-15T02:24:42.845Z,52.03
2018-04-15T02:27:10.511Z,54.03
2018-04-15T02:29:38.133Z,56.40
2018-04-15T02:32:05.742Z,55.33
2018-04-15T02:34:33.336Z,63.63
2018-04-15T02:37:00.969Z,53.97
2018-04-15T02:39:28.615Z,55.57
2018-04-15T02:41:56.280Z,51.80
2018-04-15T02:44:23.877Z,52.63
2018-04-15T02:46:51.517Z,46.70
2018-04-15T02:49:19.102Z,44.87
2018-04-15T02:51:46.711Z,47.00
2018-04-15T02:54:14.341Z,45.40
2018-04-15T02:56:41.947Z,39.73
2018-04-15T02:59:09.541Z,52.70
2018-04-15T03:01:37.146Z,45.73
2018-04-15T03:04:04.827Z,49.17
2018-04-15T03:06:32.461Z,40.73
2018-04-15T03:09:00.054Z,42.33
2018-04-15T03:11:27.654Z,41.87
2018-04-15T03:13:55.253Z,48.27
2018-04-15T03:16:22.901Z,44.23
2018-04-15T03:18:50.503Z,43.60
2018-04-15T03:21:18.102Z,44.57
2018-04-15T03:23:45.698Z,43.80
2018-04-15T03:26:13.314Z,43.87
2018-04-15T03:28:40.901Z,49.53
2018-04-15T03:31:08.533Z,46.77
2018-04-15T03:33:36.132Z,45.23
2018-04-15T03:36:03.741Z,50.40
2018-04-15T03:38:31.349Z,50.73
2018-04-15T03:40:58.941Z,54.33
2018-04-15T03:43:26.562Z,47.03
2018-04-15T03:45:54.189Z,45.13
2018-04-15T03:48:21.792Z,41.60
2018-04-15T03:50:49.393Z,36.23
2018-04-15T03:53:16.985Z,35.17
2018-04-15T03:55:44.593Z,32.10
2018-04-15T03:58:12.197Z,36.23
2018-04-15T04:00:39.796Z,37.07
2018-04-15T04:03:07.416Z,34.90
2018-04-15T04:05:35.009Z,36.50
2018-04-15T04:08:02.611Z,35.80
2018-04-15T04:10:30.208Z,36.43
2018-04-15T04:12:57.827Z,33.43
2018-04-15T04:15:25.453Z,35.53
2018-04-15T04:18:04.768Z,36.13
2018-04-15T04:20:44.092Z,35.73
2018-04-15T04:23:23.356Z,34.13
2018-04-15T04:26:03.621Z,34.80
2018-04-15T04:28:31.217Z,38.13
2018-04-15T04:30:58.834Z,36.10
2018-04-15T04:33:26.439Z,39.40
2018-04-15T04:35:54.061Z,39.83
2018-04-15T04:38:21.661Z,42.47
2018-04-15T04:40:49.328Z,40.67
2018-04-15T04:43:16.943Z,46.67
2018-04-15T04:45:44.550Z,41.57
2018-04-15T04:48:12.169Z,44.53
2018-04-15T04:50:39.757Z,44.00
2018-04-15T04:53:07.390Z,55.50
2018-04-15T04:55:35.013Z,51.43
2018-04-15T04:58:02.613Z,58.03
2018-04-15T05:00:30.275Z,54.53
2018-04-15T05:02:57.868Z,52.73
2018-04-15T05:05:25.467Z,55.30
2018-04-15T05:07:53.127Z,54.43
2018-04-15T05:10:20.721Z,51.90
2018-04-15T05:12:48.361Z,53.17
2018-04-15T05:15:15.953Z,52.50
2018-04-15T05:17:43.550Z,55.50
2018-04-15T05:20:11.196Z,59.40
2018-04-15T05:22:38.797Z,55.20
2018-04-15T05:25:06.441Z,56.27
2018-04-15T05:27:34.077Z,53.03
2018-04-15T05:30:01.713Z,58.03
2018-04-15T05:32:29.315Z,59.07
2018-04-15T05:34:56.961Z,60.87
2018-04-15T05:37:24.561Z,55.73
2018-04-15T05:39:52.165Z,64.13
2018-04-15T05:42:19.765Z,63.13
2018-04-15T05:44:47.413Z,62.33
2018-04-15T05:47:14.996Z,60.90
2018-04-15T05:49:42.613Z,59.20
2018-04-15T05:52:10.243Z,54.73
2018-04-15T05:54:37.865Z,57.47
2018-04-15T05:57:05.492Z,56.97
2018-04-15T05:59:33.112Z,62.50
2018-04-15T06:02:00.709Z,67.00
2018-04-15T06:04:28.297Z,58.33
2018-04-15T06:06:55.930Z,64.47
2018-04-15T06:09:23.526Z,60.13
2018-04-15T06:11:51.121Z,59.13
2018-04-15T06:14:18.721Z,65.20
2018-04-15T06:16:46.321Z,64.77
2018-04-15T06:19:13.995Z,58.57
2018-04-15T06:21:41.621Z,62.03
2018-04-15T06:24:09.219Z,61.30
2018-04-15T06:26:36.857Z,61.07
2018-04-15T06:29:04.489Z,59.77
2018-04-15T06:31:32.097Z,55.30
2018-04-15T06:33:59.689Z,67.77
2018-04-15T06:36:27.321Z,58.80
2018-04-15T06:38:54.918Z,54.33
2018-04-15T06:41:22.529Z,65.70
2018-04-15T06:43:50.121Z,54.70
2018-04-15T06:46:18.470Z,61.17
2018-04-15T06:48:46.073Z,62.77
2018-04-15T06:51:13.757Z,57.90
2018-04-15T06:53:41.365Z,51.33
2018-04-15T06:56:09.001Z,44.50
2018-04-15T06:58:36.638Z,47.37
2018-04-15T07:01:04.238Z,47.87
2018-04-15T07:03:31.841Z,49.23
2018-04-15T07:05:59.469Z,51.60
2018-04-15T07:08:27.057Z,46.10
2018-04-15T07:10:54.661Z,49.47
2018-04-15T07:13:22.306Z,52.53
2018-04-15T07:15:49.927Z,49.40
2018-04-15T07:18:17.541Z,57.17
2018-04-15T07:20:45.161Z,57.87
2018-04-15T07:23:12.758Z,62.10
2018-04-15T07:25:40.395Z,67.60
2018-04-15T07:28:08.026Z,66.93
2018-04-15T07:30:35.636Z,62.83
2018-04-15T07:33:03.248Z,54.70
2018-04-15T07:35:30.929Z,53.27
2018-04-15T07:37:58.581Z,57.20
2018-04-15T07:40:26.192Z,62.93
2018-04-15T07:42:53.806Z,56.77
2018-04-15T07:45:21.460Z,54.60
2018-04-15T07:47:49.286Z,53.17
2018-04-15T07:50:17.298Z,46.73
2018-04-15T07:52:44.919Z,50.03
2018-04-15T07:55:12.530Z,54.83
2018-04-15T07:57:40.129Z,49.50
2018-04-15T08:00:07.745Z,54.87
2018-04-15T08:02:35.386Z,49.67
2018-04-15T08:05:02.984Z,57.20
2018-04-15T08:07:30.615Z,49.27
2018-04-15T08:09:58.257Z,52.53
2018-04-15T08:12:25.892Z,49.00
2018-04-15T08:14:53.513Z,51.67
2018-04-15T08:17:21.114Z,44.30
2018-04-15T08:19:48.769Z,40.43
2018-04-15T08:22:16.377Z,48.83
2018-04-15T08:24:43.969Z,42.77
2018-04-15T08:27:11.620Z,48.77
2018-04-15T08:29:39.229Z,46.03
2018-04-15T08:32:06.840Z,67.63
2018-04-15T08:34:34.436Z,40.13
2018-04-15T08:37:02.069Z,36.27
2018-04-15T08:39:29.661Z,38.83
2018-04-15T08:41:57.260Z,46.80
2018-04-15T08:44:24.940Z,36.30
2018-04-15T08:46:52.540Z,36.83
2018-04-15T08:49:20.155Z,36.30
2018-04-15T08:51:47.757Z,43.13
2018-04-15T08:54:15.382Z,39.50
2018-04-15T08:56:42.976Z,35.97
2018-04-15T08:59:10.569Z,36.17
2018-04-15T09:01:38.177Z,33.90
2018-04-15T09:04:05.769Z,37.00
2018-04-15T09:06:33.396Z,35.87
2018-04-15T09:09:01.015Z,37.87
2018-04-15T09:11:28.618Z,40.23
2018-04-15T09:13:56.250Z,40.77
2018-04-15T09:16:23.837Z,38.43
2018-04-15T09:18:51.441Z,40.83
2018-04-15T09:21:19.041Z,43.53
2018-04-15T09:23:46.675Z,42.30
2018-04-15T09:26:14.261Z,41.83
2018-04-15T09:28:41.873Z,37.30
2018-04-15T09:31:12.225Z,36.87
2018-04-15T09:33:39.819Z,33.47
2018-04-15T09:36:07.429Z,37.57
2018-04-15T09:38:35.033Z,33.20
2018-04-15T09:41:02.672Z,34.97
2018-04-15T09:43:30.292Z,39.00
2018-04-15T09:45:57.888Z,35.60
2018-04-15T09:48:25.490Z,35.67
2018-04-15T09:50:53.121Z,34.97
2018-04-15T09:53:20.721Z,33.23
2018-04-15T09:55:48.318Z,36.60
2018-04-15T09:58:15.949Z,34.93
2018-04-15T10:00:43.573Z,34.20
2018-04-15T10:03:11.233Z,31.43
2018-04-15T10:05:38.905Z,33.97
2018-04-15T10:08:06.538Z,33.90
2018-04-15T10:10:34.180Z,37.00
2018-04-15T10:13:01.786Z,34.57
2018-04-15T10:15:29.453Z,33.33
2018-04-15T10:17:57.077Z,31.47
2018-04-15T10:20:24.691Z,35.97
2018-04-15T10:22:52.320Z,33.97
2018-04-15T10:25:20.016Z,33.73
2018-04-15T10:27:47.613Z,33.17
2018-04-15T10:30:15.281Z,34.60
2018-04-15T10:32:42.923Z,39.53
2018-04-15T10:35:10.568Z,32.40
2018-04-15T10:37:38.181Z,33.37
2018-04-15T10:40:05.851Z,31.87
2018-04-15T10:42:33.578Z,29.83
2018-04-15T10:45:01.175Z,31.20
2018-04-15T10:47:28.757Z,32.43
2018-04-15T10:49:56.404Z,30.63
2018-04-15T10:52:24.009Z,30.27
2018-04-15T10:54:51.597Z,31.93
2018-04-15T10:57:19.219Z,31.87
2018-04-15T10:59:46.814Z,31.20
2018-04-15T11:02:14.410Z,29.53
2018-04-15T11:04:42.041Z,31.27
2018-04-15T11:07:09.649Z,29.27
2018-04-15T11:09:37.251Z,30.83
2018-04-15T11:12:04.849Z,31.77
2018-04-15T11:14:32.450Z,30.77
2018-04-15T11:17:00.049Z,34.40
2018-04-15T11:19:27.649Z,33.60
2018-04-15T11:21:55.305Z,31.53
2018-04-15T11:24:22.912Z,30.43
2018-04-15T11:26:50.535Z,29.50
2018-04-15T11:29:18.129Z,30.47
2018-04-15T11:31:45.730Z,34.33
2018-04-15T11:34:13.342Z,35.73
2018-04-15T11:36:40.975Z,30.80
2018-04-15T11:39:08.581Z,27.13
2018-04-15T11:41:36.169Z,31.63
2018-04-15T11:44:03.783Z,30.33
2018-04-15T11:46:31.389Z,34.17
2018-04-15T11:48:59.031Z,33.77
2018-04-15T11:51:26.662Z,33.30
2018-04-15T11:53:54.262Z,33.30
2018-04-15T11:56:21.898Z,32.27
2018-04-15T11:58:49.581Z,36.20
2018-04-15T12:01:17.185Z,31.37
2018-04-15T12:03:44.842Z,33.60
2018-04-15T12:06:12.451Z,38.27
2018-04-15T12:08:40.041Z,33.93
2018-04-15T12:11:07.679Z,30.13
2018-04-15T12:13:35.286Z,35.43
2018-04-15T12:16:03.730Z,31.07
2018-04-15T12:18:31.761Z,35.27
2018-04-15T12:20:59.370Z,38.57
2018-04-15T12:23:27.001Z,36.83
2018-04-15T12:25:54.627Z,36.07
2018-04-15T12:28:22.218Z,31.10
2018-04-15T12:30:53.734Z,34.57
2018-04-15T12:33:21.338Z,31.37
2018-04-15T12:35:48.968Z,35.60
2018-04-15T12:38:16.657Z,29.90
2018-04-15T12:40:44.390Z,35.77
2018-04-15T12:43:12.009Z,29.70
2018-04-15T12:45:40.125Z,35.07
2018-04-15T12:48:07.772Z,34.60
2018-04-15T12:50:35.380Z,33.10
2018-04-15T12:53:02.990Z,29.67
2018-04-15T12:55:30.637Z,33.80
2018-04-15T12:57:58.237Z,30.93
2018-04-15T13:00:25.849Z,33.63
2018-04-15T13:02:53.441Z,36.10
2018-04-15T13:05:21.073Z,35.97
2018-04-15T13:07:48.677Z,36.57
2018-04-15T13:10:16.929Z,32.20
2018-04-15T13:12:44.558Z,32.80
2018-04-15T13:15:12.181Z,33.60
2018-04-15T13:17:39.794Z,34.93
2018-04-15T13:20:07.397Z,33.90
2018-04-15T13:22:34.997Z,33.03
2018-04-15T13:25:02.629Z,37.07
2018-04-15T13:27:30.266Z,35.47
2018-04-15T13:29:57.862Z,33.53
2018-04-15T13:32:25.477Z,45.40
2018-04-15T13:34:53.085Z,47.17
2018-04-15T13:37:20.677Z,45.47
2018-04-15T13:39:48.281Z,50.27
2018-04-15T13:42:15.897Z,52.50
2018-04-15T13:44:43.551Z,57.57
2018-04-15T13:47:11.173Z,53.90
2018-04-15T13:49:38.770Z,50.63
2018-04-15T13:52:06.453Z,54.43
2018-04-15T13:54:34.072Z,56.20
2018-04-15T13:57:01.683Z,58.47
2018-04-15T13:59:29.317Z,51.83
2018-04-15T14:01:56.915Z,54.20
2018-04-15T14:04:24.514Z,50.50
2018-04-15T14:06:52.116Z,58.33
2018-04-15T14:09:19.833Z,53.37
2018-04-15T14:11:47.494Z,54.57
2018-04-15T14:14:15.086Z,54.10
2018-04-15T14:16:42.725Z,55.53
2018-04-15T14:19:10.324Z,53.13
2018-04-15T14:21:37.921Z,54.40
2018-04-15T14:24:05.599Z,54.23
2018-04-15T14:26:33.242Z,54.70
2018-04-15T14:29:00.849Z,51.30
2018-04-15T14:31:28.501Z,59.97
2018-04-15T14:33:56.099Z,57.57
2018-04-15T14:36:23.699Z,57.00
2018-04-15T14:38:51.333Z,54.77
2018-04-15T14:41:18.966Z,57.43
2018-04-15T14:43:46.561Z,62.77
2018-04-15T14:46:14.210Z,54.57
2018-04-15T14:48:41.817Z,57.27
2018-04-15T14:51:09.415Z,54.93
2018-04-15T14:53:37.021Z,54.53
2018-04-15T14:56:04.653Z,54.47
2018-04-15T14:58:32.265Z,57.23
2018-04-15T15:00:59.870Z,65.53
2018-04-15T15:03:27.489Z,61.37
2018-04-15T15:05:55.146Z,65.07
2018-04-15T15:08:22.831Z,64.10
2018-04-15T15:10:50.425Z,61.87
2018-04-15T15:13:18.124Z,67.57
2018-04-15T15:15:45.767Z,60.60
2018-04-15T15:18:13.442Z,65.40
2018-04-15T15:20:41.056Z,69.20
2018-04-15T15:23:08.714Z,64.47
2018-04-15T15:25:36.365Z,67.80
2018-04-15T15:28:04.098Z,74.03
2018-04-15T15:30:31.718Z,66.63
2018-04-15T15:32:59.439Z,67.13
2018-04-15T15:35:27.068Z,75.27
2018-04-15T15:37:54.677Z,74.93
2018-04-15T15:40:22.354Z,71.00
2018-04-15T15:42:50.109Z,71.07
2018-04-15T15:45:17.773Z,70.90
2018-04-15T15:47:45.481Z,65.37
2018-04-15T15:50:13.101Z,81.83
2018-04-15T15:52:40.739Z,68.27
2018-04-15T15:55:08.352Z,70.77
2018-04-15T15:57:35.986Z,64.60
2018-04-15T16:00:03.672Z,70.67
2018-04-15T16:02:31.303Z,69.23
2018-04-15T16:04:58.904Z,70.00
2018-04-15T16:07:26.512Z,65.93
2018-04-15T16:09:54.117Z,64.77
2018-04-15T16:12:21.719Z,72.00
2018-04-15T16:14:49.384Z,62.10
2018-04-15T16:17:16.982Z,72.97
2018-04-15T16:19:44.589Z,72.50
2018-04-15T16:22:12.194Z,80.77
2018-04-15T16:24:39.800Z,73.73
2018-04-15T16:27:08.105Z,67.10
2018-04-15T16:29:35.706Z,72.00
2018-04-15T16:32:03.384Z,67.77
2018-04-15T16:34:30.995Z,67.83
2018-04-15T16:36:58.626Z,64.73
2018-04-15T16:39:26.225Z,63.83
2018-04-15T16:41:53.817Z,71.57
2018-04-15T16:44:21.449Z,69.90
2018-04-15T16:46:49.101Z,65.30
2018-04-15T16:49:16.706Z,68.03
2018-04-15T16:51:44.311Z,71.23
2018-04-15T16:54:11.917Z,70.43
2018-04-15T16:56:39.517Z,73.00
2018-04-15T16:59:07.126Z,73.80
2018-04-15T17:01:34.725Z,66.17
2018-04-15T17:04:02.383Z,73.73
2018-04-15T17:06:29.998Z,74.40
2018-04-15T17:08:57.611Z,73.80
2018-04-15T17:11:25.225Z,68.40
2018-04-15T17:13:52.817Z,70.20
2018-04-15T17:16:20.472Z,64.13
2018-04-15T17:18:48.093Z,70.23
2018-04-15T17:21:15.703Z,77.93
2018-04-15T17:23:43.323Z,71.00
2018-04-15T17:26:10.996Z,71.40
2018-04-15T17:28:42.328Z,79.47
2018-04-15T17:31:09.925Z,81.60
2018-04-15T17:33:37.528Z,68.57
2018-04-15T17:36:05.149Z,72.43
2018-04-15T17:38:32.754Z,76.57
2018-04-15T17:41:00.436Z,77.00
2018-04-15T17:43:28.019Z,70.90
2018-04-15T17:45:55.634Z,82.47
2018-04-15T17:48:23.255Z,73.30
2018-04-15T17:50:50.942Z,83.20
2018-04-15T17:53:18.545Z,78.60
2018-04-15T17:55:46.194Z,78.80
2018-04-15T17:58:13.813Z,80.37
2018-04-15T18:00:41.442Z,75.70
2018-04-15T18:03:09.042Z,75.47
2018-04-15T18:05:36.682Z,86.27
2018-04-15T18:08:05.274Z,84.77
2018-04-15T18:10:32.881Z,70.07
2018-04-15T18:13:01.511Z,80.83
2018-04-15T18:15:29.174Z,76.57
2018-04-15T18:17:56.771Z,84.03
2018-04-15T18:20:24.421Z,76.40
2018-04-15T18:22:52.054Z,74.03
2018-04-15T18:25:19.653Z,70.47
2018-04-15T18:27:47.293Z,72.43
2018-04-15T18:30:14.933Z,75.60
2018-04-15T18:32:42.550Z,81.57
2018-04-15T18:35:10.213Z,72.73
2018-04-15T18:37:37.842Z,71.67
2018-04-15T18:40:05.481Z,78.70
2018-04-15T18:42:33.139Z,78.73
2018-04-15T18:45:00.765Z,74.67
2018-04-15T18:47:28.387Z,75.80
2018-04-15T18:49:56.081Z,82.67
2018-04-15T18:52:23.707Z,74.17
2018-04-15T18:54:51.367Z,76.33
2018-04-15T18:57:19.006Z,81.53
2018-04-15T18:59:46.698Z,78.13
2018-04-15T19:02:14.332Z,73.93
2018-04-15T19:04:41.934Z,79.17
2018-04-15T19:07:09.554Z,77.37
2018-04-15T19:09:37.217Z,79.97
2018-04-15T19:12:04.867Z,70.03
2018-04-15T19:14:32.467Z,79.30
2018-04-15T19:17:00.118Z,71.57
2018-04-15T19:19:27.755Z,73.03
2018-04-15T19:21:55.430Z,70.53
2018-04-15T19:24:23.042Z,75.43
2018-04-15T19:26:50.646Z,73.70
2018-04-15T19:29:18.246Z,71.23
2018-04-15T19:31:45.950Z,75.83
2018-04-15T19:34:13.634Z,69.27
2018-04-15T19:36:41.242Z,70.03
2018-04-15T19:39:08.849Z,75.87
2018-04-15T19:41:36.489Z,71.63
2018-04-15T19:44:04.093Z,68.17
2018-04-15T19:46:31.710Z,70.40
2018-04-15T19:48:59.397Z,72.90
2018-04-15T19:51:27.046Z,78.43
2018-04-15T19:53:54.666Z,75.77
2018-04-15T19:56:22.312Z,71.60
2018-04-15T19:58:49.906Z,79.67
2018-04-15T20:01:17.501Z,74.60
2018-04-15T20:03:45.149Z,74.87
2018-04-15T20:06:12.770Z,84.27
2018-04-15T20:08:40.369Z,78.53
2018-04-15T20:11:08.215Z,79.00
2018-04-15T20:13:35.854Z,80.53
2018-04-15T20:16:03.449Z,81.13
2018-04-15T20:18:31.106Z,88.67
2018-04-15T20:20:58.846Z,79.20
2018-04-15T20:23:26.526Z,87.03
2018-04-15T20:25:54.130Z,83.50
2018-04-15T20:28:21.770Z,93.43
2018-04-15T20:30:49.424Z,86.20
2018-04-15T20:33:17.030Z,83.10
2018-04-15T20:35:44.621Z,84.60
2018-04-15T20:38:12.233Z,84.77
2018-04-15T20:40:39.900Z,87.90
2018-04-15T20:43:07.495Z,84.67
2018-04-15T20:45:35.141Z,82.63
2018-04-15T20:48:02.774Z,77.30
2018-04-15T20:50:30.370Z,89.23
2018-04-15T20:52:57.962Z,82.53
2018-04-15T20:55:25.569Z,76.90
2018-04-15T20:57:53.182Z,76.67
2018-04-15T21:00:20.785Z,80.80
2018-04-15T21:02:48.386Z,80.00
2018-04-15T21:05:16.011Z,75.20
2018-04-15T21:07:43.649Z,79.13
2018-04-15T21:10:11.313Z,78.90
2018-04-15T21:12:38.908Z,84.10
2018-04-15T21:15:06.521Z,84.73
2018-04-15T21:17:34.172Z,82.20
2018-04-15T21:20:01.778Z,83.80
2018-04-15T21:22:29.420Z,78.17
2018-04-15T21:24:57.025Z,80.17
2018-04-15T21:27:24.659Z,73.00
2018-04-15T21:29:52.253Z,76.57
2018-04-15T21:32:19.904Z,79.60
2018-04-15T21:34:47.509Z,68.17
2018-04-15T21:37:15.155Z,68.20
2018-04-15T21:39:42.753Z,68.77
2018-04-15T21:42:10.386Z,68.30
2018-04-15T21:44:37.997Z,55.83
2018-04-15T21:47:05.589Z,59.87
2018-04-15T21:49:33.197Z,49.83
2018-04-15T21:52:00.892Z,42.43
2018-04-15T21:54:28.489Z,35.43
2018-04-15T21:56:56.117Z,37.03
2018-04-15T21:59:23.712Z,30.83
2018-04-15T22:01:51.315Z,30.77
2018-04-15T22:04:18.918Z,32.37
2018-04-15T22:06:46.529Z,26.73
2018-04-15T22:09:14.169Z,27.97
2018-04-15T22:11:53.435Z,23.53
2018-04-15T22:14:21.035Z,23.77
2018-04-15T22:16:48.685Z,20.63
2018-04-15T22:19:16.329Z,19.93
2018-04-15T22:21:43.925Z,20.53
2018-04-15T22:24:11.562Z,16.80
2018-04-15T22:26:39.193Z,21.73
2018-04-15T22:29:06.841Z,21.07
2018-04-15T22:31:34.444Z,19.93
2018-04-15T22:34:02.087Z,20.37
2018-04-15T22:36:29.677Z,18.43
2018-04-15T22:38:57.312Z,18.63
2018-04-15T22:41:24.924Z,17.93
2018-04-15T22:43:52.605Z,22.07
2018-04-15T22:46:20.217Z,16.33
2018-04-15T22:48:47.866Z,14.87
2018-04-15T22:51:15.457Z,13.17
2018-04-15T22:53:43.095Z,11.27
2018-04-15T22:56:10.727Z,17.67
2018-04-15T22:58:44.025Z,10.83
2018-04-15T23:01:11.637Z,18.97
2018-04-15T23:03:39.243Z,12.97
2018-04-15T23:06:06.876Z,11.30
2018-04-15T23:08:34.473Z,16.23
2018-04-15T23:11:02.093Z,15.63
2018-04-15T23:13:29.754Z,18.07
2018-04-15T23:15:57.388Z,12.43
2018-04-15T23:18:25.009Z,12.70
2018-04-15T23:20:52.737Z,16.07
2018-04-15T23:23:20.333Z,12.20
2018-04-15T23:25:47.949Z,16.03
2018-04-15T23:28:15.581Z,16.07
2018-04-15T23:30:43.181Z,16.27
2018-04-15T23:33:10.769Z,15.57
2018-04-15T23:35:38.408Z,15.03
2018-04-15T23:38:06.002Z,11.77
2018-04-15T23:40:33.605Z,13.93
2018-04-15T23:43:02.824Z,13.97
2018-04-15T23:45:30.467Z,14.33
2018-04-15T23:47:58.070Z,13.53
2018-04-15T23:50:25.666Z,16.67
2018-04-15T23:52:53.273Z,15.23
2018-04-15T23:55:20.912Z,14.20
2018-04-15T23:57:48.517Z,19.10
